Time;durP1;ratioP1;P1;durP2;ratioP2;P2;SDS_P1;SDS_P2;PMS_P1;PMS_P2;Temp;Humidity;BMP_temperature;BMP_pressure;BME280_temperature;BME280_humidity;BME280_pressure;Samples;Min_cycle;Max_cycle;Signal;HPM_P1;HPM_P2
2023/04/15 00:01:58;;;;;;;;;;;19.00;99.90;;;;;;5097902;28;20187;-61
2023/04/15 00:04:25;;;;;;;;;;;19.10;99.90;;;;;;5095519;28;20171;-68
2023/04/15 00:06:53;;;;;;;;;;;19.20;99.90;;;;;;5097994;28;19907;-64
2023/04/15 00:09:20;;;;;;;;;;;19.30;99.90;;;;;;5096126;28;19916;-69
2023/04/15 00:11:47;;;;;;;;;;;19.50;99.90;;;;;;5098101;28;19986;-61
2023/04/15 00:14:13;;;;;;;;;;;19.50;99.90;;;;;;5095011;28;19951;-66
2023/04/15 00:16:40;;;;;;;;;;;19.60;99.90;;;;;;5098237;28;19916;-68
2023/04/15 00:19:07;;;;;;;;;;;19.60;99.90;;;;;;5098003;28;19908;-67
2023/04/15 00:21:33;;;;;;;;;;;19.70;99.90;;;;;;5096583;28;20113;-67
2023/04/15 00:24:00;;;;;;;;;;;19.90;99.90;;;;;;5097379;28;19955;-66
2023/04/15 00:26:27;;;;;;;;;;;19.90;99.90;;;;;;5095202;28;19915;-64
2023/04/15 00:28:54;;;;;;;;;;;20.10;99.90;;;;;;5097750;28;19907;-64
2023/04/15 00:31:20;;;;;;;;;;;20.20;99.90;;;;;;5095819;28;20425;-66
2023/04/15 00:33:47;;;;;;;;;;;20.30;99.90;;;;;;5096817;28;19907;-68
2023/04/15 00:36:14;;;;;;;;;;;20.40;99.90;;;;;;5096515;28;19922;-64
2023/04/15 00:38:41;;;;;;;;;;;20.50;99.90;;;;;;5097647;28;19912;-64
2023/04/15 00:41:09;;;;;;;;;;;20.60;99.90;;;;;;5097953;28;19915;-67
2023/04/15 00:43:35;;;;;;;;;;;20.80;99.90;;;;;;5096084;28;19950;-66
2023/04/15 00:46:04;;;;;;;;;;;20.90;99.90;;;;;;5097004;28;20091;-62
2023/04/15 00:48:31;;;;;;;;;;;21.00;99.90;;;;;;5094649;28;19999;-63
2023/04/15 00:50:58;;;;;;;;;;;21.20;99.90;;;;;;5097183;28;19958;-61
2023/04/15 00:53:25;;;;;;;;;;;21.20;99.90;;;;;;5095824;28;20382;-67
2023/04/15 00:55:52;;;;;;;;;;;21.30;99.90;;;;;;5096832;28;20164;-66
2023/04/15 00:58:18;;;;;;;;;;;21.40;99.90;;;;;;5095944;28;19908;-61
2023/04/15 01:00:45;;;;;;;;;;;21.40;99.90;;;;;;5097783;28;20288;-65
2023/04/15 01:03:12;;;;;;;;;;;21.50;99.90;;;;;;5101908;28;19915;-61
2023/04/15 01:05:39;;;;;;;;;;;21.60;99.90;;;;;;5100080;28;20095;-68
2023/04/15 01:08:05;;;;;;;;;;;21.70;99.90;;;;;;5101043;28;20356;-63
2023/04/15 01:10:32;;;;;;;;;;;21.80;99.90;;;;;;5099361;28;19953;-67
2023/04/15 01:12:59;;;;;;;;;;;21.90;99.90;;;;;;5100911;28;19908;-68
2023/04/15 01:15:26;;;;;;;;;;;21.90;99.90;;;;;;5099498;28;19915;-60
2023/04/15 01:17:53;;;;;;;;;;;22.00;99.90;;;;;;5100264;28;19907;-62
2023/04/15 01:20:20;;;;;;;;;;;22.20;99.90;;;;;;5099958;28;19923;-63
2023/04/15 01:22:47;;;;;;;;;;;22.30;99.90;;;;;;5101085;28;19916;-63
2023/04/15 01:25:17;;;;;;;;;;;22.50;99.90;;;;;;5101424;28;19915;-63
2023/04/15 01:27:44;;;;;;;;;;;22.60;99.90;;;;;;5099874;28;19915;-64
2023/04/15 01:30:11;;;;;;;;;;;22.80;99.90;;;;;;5100185;28;20388;-60
2023/04/15 01:32:38;;;;;;;;;;;22.80;98.90;;;;;;5099244;28;19973;-62
2023/04/15 01:35:04;;;;;;;;;;;22.90;99.80;;;;;;5100426;28;19912;-62
2023/04/15 01:37:31;;;;;;;;;;;23.10;98.60;;;;;;5099233;28;19943;-67
2023/04/15 01:39:58;;;;;;;;;;;23.20;99.50;;;;;;5100066;28;19919;-68
2023/04/15 01:42:25;;;;;;;;;;;23.40;99.50;;;;;;5099345;28;19919;-63
2023/04/15 01:44:52;;;;;;;;;;;23.70;98.90;;;;;;5100313;28;19953;-65
2023/04/15 01:47:19;;;;;;;;;;;23.60;97.80;;;;;;5082745;28;20002;-61
2023/04/15 01:49:46;;;;;;;;;;;23.80;98.50;;;;;;5098985;28;20619;-66
2023/04/15 01:52:13;;;;;;;;;;;24.00;98.40;;;;;;5099765;28;20327;-64
2023/04/15 01:54:39;;;;;;;;;;;24.10;97.60;;;;;;5098774;28;20007;-67
2023/04/15 01:57:06;;;;;;;;;;;24.20;96.50;;;;;;5099848;28;20340;-64
2023/04/15 01:59:33;;;;;;;;;;;24.30;95.80;;;;;;5099173;28;19970;-68
2023/04/15 02:02:00;;;;;;;;;;;24.40;95.70;;;;;;5099432;28;19995;-69
2023/04/15 02:04:26;;;;;;;;;;;24.60;95.70;;;;;;5100033;28;20183;-63
2023/04/15 02:06:53;;;;;;;;;;;24.80;95.30;;;;;;5099766;28;19908;-64
2023/04/15 02:09:20;;;;;;;;;;;24.90;94.70;;;;;;5100227;28;20086;-70
2023/04/15 02:11:46;;;;;;;;;;;25.10;95.70;;;;;;5098015;28;20085;-61
2023/04/15 02:14:13;;;;;;;;;;;25.30;95.50;;;;;;5099211;28;19914;-65
2023/04/15 02:16:40;;;;;;;;;;;25.30;94.20;;;;;;5099108;28;19938;-67
2023/04/15 02:19:06;;;;;;;;;;;25.50;92.70;;;;;;5099058;28;19908;-64
2023/04/15 02:21:34;;;;;;;;;;;25.50;93.30;;;;;;5098533;28;19919;-64
2023/04/15 02:24:01;;;;;;;;;;;25.60;93.30;;;;;;5098850;28;19927;-64
2023/04/15 02:26:30;;;;;;;;;;;25.60;92.30;;;;;;5100001;28;19907;-64
2023/04/15 02:28:57;;;;;;;;;;;25.50;92.40;;;;;;5099092;28;20284;-61
2023/04/15 02:31:24;;;;;;;;;;;25.40;92.90;;;;;;5099856;28;20102;-64
2023/04/15 02:33:51;;;;;;;;;;;25.50;93.50;;;;;;5098785;28;20187;-66
2023/04/15 02:36:17;;;;;;;;;;;25.80;93.60;;;;;;5099255;28;19908;-68
2023/04/15 02:38:44;;;;;;;;;;;26.20;93.60;;;;;;5098421;28;19912;-71
2023/04/15 02:41:10;;;;;;;;;;;26.90;92.00;;;;;;5098543;28;19916;-68
2023/04/15 02:43:38;;;;;;;;;;;27.70;92.60;;;;;;5098200;28;20443;-69
2023/04/15 02:46:05;;;;;;;;;;;28.90;91.20;;;;;;5098549;28;19915;-62
2023/04/15 02:48:32;;;;;;;;;;;30.10;87.60;;;;;;5099727;28;19914;-61
2023/04/15 02:51:21;;;;;;;;;;;31.30;84.90;;;;;;5098553;28;19908;-66
2023/04/15 02:53:48;;;;;;;;;;;31.90;80.90;;;;;;5097955;28;19908;-66
2023/04/15 02:56:16;;;;;;;;;;;33.10;76.10;;;;;;5098751;28;20386;-65
2023/04/15 02:58:43;;;;;;;;;;;34.20;73.20;;;;;;5098015;28;19908;-67
2023/04/15 03:01:10;;;;;;;;;;;34.70;73.20;;;;;;5097606;28;20268;-67
2023/04/15 03:03:37;;;;;;;;;;;35.30;71.10;;;;;;5098701;28;20368;-67
2023/04/15 03:06:04;;;;;;;;;;;36.20;71.00;;;;;;5098208;28;19912;-66
2023/04/15 03:08:30;;;;;;;;;;;36.90;66.40;;;;;;5099341;28;19907;-67
2023/04/15 03:10:59;;;;;;;;;;;37.20;67.10;;;;;;5097317;28;19907;-67
2023/04/15 03:13:26;;;;;;;;;;;37.70;66.30;;;;;;5098093;28;20357;-66
2023/04/15 03:15:52;;;;;;;;;;;38.40;64.60;;;;;;5097670;28;19908;-68
2023/04/15 03:18:19;;;;;;;;;;;38.90;62.30;;;;;;5098129;28;19908;-63
2023/04/15 03:20:46;;;;;;;;;;;39.20;62.00;;;;;;5097574;28;20338;-64
2023/04/15 03:23:12;;;;;;;;;;;39.40;60.00;;;;;;5097076;28;19919;-64
2023/04/15 03:25:39;;;;;;;;;;;38.90;60.30;;;;;;5098971;28;19908;-66
2023/04/15 03:28:05;;;;;;;;;;;39.00;59.40;;;;;;5097871;28;19908;-64
2023/04/15 03:30:32;;;;;;;;;;;39.50;59.90;;;;;;5098505;28;19907;-64
2023/04/15 03:32:59;;;;;;;;;;;39.70;59.30;;;;;;5096391;28;19961;-64
2023/04/15 03:35:25;;;;;;;;;;;40.20;58.90;;;;;;5097777;28;19915;-67
2023/04/15 03:37:52;;;;;;;;;;;40.50;56.90;;;;;;5097457;28;20253;-65
2023/04/15 03:40:20;;;;;;;;;;;40.80;56.90;;;;;;5096939;28;20369;-69
2023/04/15 03:42:47;;;;;;;;;;;41.40;56.50;;;;;;5096805;28;20156;-65
2023/04/15 03:45:13;;;;;;;;;;;40.20;56.90;;;;;;5097408;28;20036;-65
2023/04/15 03:47:40;;;;;;;;;;;39.80;57.70;;;;;;5098531;28;19912;-69
2023/04/15 03:50:07;;;;;;;;;;;39.80;58.30;;;;;;5096909;28;19960;-68
2023/04/15 03:52:34;;;;;;;;;;;40.20;58.40;;;;;;5098045;28;19908;-70
2023/04/15 03:55:01;;;;;;;;;;;40.40;58.10;;;;;;5096718;28;19915;-69
2023/04/15 03:57:27;;;;;;;;;;;39.30;59.50;;;;;;5097679;28;20438;-63
2023/04/15 03:59:54;;;;;;;;;;;39.80;59.30;;;;;;5096915;28;19918;-61
2023/04/15 04:02:21;;;;;;;;;;;40.00;59.50;;;;;;5097092;28;20012;-69
2023/04/15 04:04:48;;;;;;;;;;;39.80;60.00;;;;;;5096824;28;19908;-62
2023/04/15 04:07:15;;;;;;;;;;;40.10;60.30;;;;;;5098066;28;20013;-63
2023/04/15 04:09:42;;;;;;;;;;;40.20;60.90;;;;;;5097625;28;20322;-63
2023/04/15 04:12:09;;;;;;;;;;;40.30;60.70;;;;;;5097690;28;19908;-66
2023/04/15 04:14:36;;;;;;;;;;;40.20;60.00;;;;;;5096194;28;19908;-64
2023/04/15 04:17:02;;;;;;;;;;;39.40;61.70;;;;;;5096685;28;19912;-69
2023/04/15 04:19:29;;;;;;;;;;;38.10;62.60;;;;;;5096458;28;19998;-67
2023/04/15 04:21:55;;;;;;;;;;;36.90;64.70;;;;;;5096672;28;19961;-69
2023/04/15 04:24:22;;;;;;;;;;;35.30;67.00;;;;;;5096166;28;19921;-63
2023/04/15 04:26:49;;;;;;;;;;;33.60;69.60;;;;;;5097571;28;19968;-67
2023/04/15 04:29:15;;;;;;;;;;;32.50;71.60;;;;;;5097207;28;20386;-64
2023/04/15 04:31:42;;;;;;;;;;;31.60;73.70;;;;;;5097177;28;19912;-69
2023/04/15 04:34:09;;;;;;;;;;;31.00;75.40;;;;;;5096165;28;19908;-64
2023/04/15 04:36:35;;;;;;;;;;;30.50;76.60;;;;;;5095799;28;20547;-71
2023/04/15 04:39:02;;;;;;;;;;;30.40;77.20;;;;;;5096538;28;20360;-69
2023/04/15 04:41:29;;;;;;;;;;;30.90;75.90;;;;;;5096087;28;19927;-65
2023/04/15 04:43:56;;;;;;;;;;;31.30;75.70;;;;;;5096197;28;19919;-65
2023/04/15 04:46:22;;;;;;;;;;;31.70;75.00;;;;;;5097005;28;20063;-64
2023/04/15 04:48:49;;;;;;;;;;;32.70;73.70;;;;;;5097681;28;19934;-68
2023/04/15 04:51:16;;;;;;;;;;;32.40;74.60;;;;;;5097098;28;20014;-69
2023/04/15 04:53:42;;;;;;;;;;;33.10;73.90;;;;;;5095959;28;20080;-68
2023/04/15 04:56:09;;;;;;;;;;;33.90;70.80;;;;;;5096435;28;20128;-68
2023/04/15 04:58:37;;;;;;;;;;;34.90;70.40;;;;;;5096142;28;20002;-66
2023/04/15 05:01:03;;;;;;;;;;;35.80;68.30;;;;;;5096212;28;20368;-70
2023/04/15 05:03:30;;;;;;;;;;;37.00;66.40;;;;;;5096414;28;19982;-70
2023/04/15 05:05:57;;;;;;;;;;;37.80;65.40;;;;;;5096844;28;20349;-68
2023/04/15 05:08:23;;;;;;;;;;;38.80;64.00;;;;;;5096801;28;20423;-65
2023/04/15 05:10:50;;;;;;;;;;;39.20;62.60;;;;;;5097267;28;19912;-68
2023/04/15 05:13:17;;;;;;;;;;;37.90;63.20;;;;;;5096037;28;19944;-69
2023/04/15 05:15:44;;;;;;;;;;;37.50;63.90;;;;;;5096179;28;20131;-67
2023/04/15 05:18:10;;;;;;;;;;;37.60;63.70;;;;;;5096105;28;20031;-68
2023/04/15 05:20:37;;;;;;;;;;;37.70;63.50;;;;;;5096657;28;19927;-68
2023/04/15 05:23:04;;;;;;;;;;;38.30;62.70;;;;;;5095793;28;20015;-62
2023/04/15 05:25:31;;;;;;;;;;;39.00;61.90;;;;;;5096265;28;19938;-69
2023/04/15 05:27:58;;;;;;;;;;;38.80;62.10;;;;;;5097145;28;19961;-68
2023/04/15 05:30:24;;;;;;;;;;;39.10;61.60;;;;;;5079174;28;19907;-68
2023/04/15 05:32:51;;;;;;;;;;;38.90;61.40;;;;;;5096026;28;20548;-65
2023/04/15 05:35:18;;;;;;;;;;;39.10;62.30;;;;;;5095816;28;19908;-64
2023/04/15 05:37:45;;;;;;;;;;;39.50;62.10;;;;;;5095631;28;20252;-65
2023/04/15 05:40:12;;;;;;;;;;;39.50;61.30;;;;;;5095826;28;20360;-64
2023/04/15 05:42:38;;;;;;;;;;;39.50;62.60;;;;;;5095756;28;19919;-62
2023/04/15 05:45:07;;;;;;;;;;;39.90;61.00;;;;;;5095460;28;20118;-64
2023/04/15 05:47:36;;;;;;;;;;;40.10;61.60;;;;;;5095877;28;20008;-64
2023/04/15 05:50:03;;;;;;;;;;;40.10;60.40;;;;;;5100311;28;19908;-64
2023/04/15 05:52:30;;;;;;;;;;;38.80;61.00;;;;;;5100747;28;20004;-65
2023/04/15 05:54:57;;;;;;;;;;;38.40;62.30;;;;;;5099900;28;19922;-66
2023/04/15 05:57:24;;;;;;;;;;;38.70;62.90;;;;;;5099371;28;20348;-68
2023/04/15 05:59:54;;;;;;;;;;;38.80;62.00;;;;;;5099027;28;19912;-70
2023/04/15 06:02:20;;;;;;;;;;;38.30;62.50;;;;;;5098975;28;19911;-65
2023/04/15 06:04:47;;;;;;;;;;;38.20;62.40;;;;;;5099230;28;20360;-63
2023/04/15 06:07:14;;;;;;;;;;;37.90;62.80;;;;;;5101042;28;19908;-62
2023/04/15 06:09:41;;;;;;;;;;;37.70;63.10;;;;;;5097671;28;19969;-63
2023/04/15 06:12:10;;;;;;;;;;;38.00;63.10;;;;;;5100578;28;19908;-65
2023/04/15 06:14:38;;;;;;;;;;;37.90;63.00;;;;;;5098156;28;20133;-63
2023/04/15 06:17:04;;;;;;;;;;;37.70;63.50;;;;;;5100502;28;19912;-62
2023/04/15 06:19:31;;;;;;;;;;;37.70;62.60;;;;;;5099201;28;19908;-69
2023/04/15 06:21:58;;;;;;;;;;;37.20;63.80;;;;;;5098892;28;19912;-67
2023/04/15 06:24:24;;;;;;;;;;;37.00;64.40;;;;;;5099216;28;19920;-68
2023/04/15 06:26:51;;;;;;;;;;;36.90;64.80;;;;;;5098660;28;19908;-68
2023/04/15 06:29:18;;;;;;;;;;;36.90;64.20;;;;;;5100236;28;19978;-69
2023/04/15 06:31:46;;;;;;;;;;;36.90;63.70;;;;;;5097845;28;19960;-65
2023/04/15 06:34:13;;;;;;;;;;;36.80;64.20;;;;;;5100151;28;19953;-65
2023/04/15 06:36:39;;;;;;;;;;;36.30;64.70;;;;;;5098260;28;19911;-63
2023/04/15 06:39:06;;;;;;;;;;;36.10;64.70;;;;;;5099424;28;19915;-64
2023/04/15 06:41:33;;;;;;;;;;;34.80;66.30;;;;;;5098503;28;20387;-63
2023/04/15 06:43:59;;;;;;;;;;;32.90;69.90;;;;;;5097911;28;20086;-64
2023/04/15 06:46:26;;;;;;;;;;;31.20;73.00;;;;;;5099084;28;19908;-64
2023/04/15 06:48:53;;;;;;;;;;;30.00;75.30;;;;;;5098105;28;19915;-62
2023/04/15 06:51:20;;;;;;;;;;;28.90;78.30;;;;;;5099841;28;19993;-67
2023/04/15 06:53:46;;;;;;;;;;;27.90;81.00;;;;;;5096333;28;20337;-65
2023/04/15 06:56:13;;;;;;;;;;;27.10;83.60;;;;;;5099909;28;19915;-64
2023/04/15 06:58:40;;;;;;;;;;;26.40;85.70;;;;;;5098654;28;19915;-63
2023/04/15 07:01:06;;;;;;;;;;;26.10;87.50;;;;;;5098699;28;20360;-67
2023/04/15 07:03:34;;;;;;;;;;;25.70;89.10;;;;;;5098063;28;19914;-65
2023/04/15 07:06:05;;;;;;;;;;;25.40;90.20;;;;;;5097834;28;19907;-69
2023/04/15 07:08:32;;;;;;;;;;;25.00;90.90;;;;;;5098742;28;19907;-61
2023/04/15 07:11:00;;;;;;;;;;;24.60;91.80;;;;;;5097850;28;20276;-61
2023/04/15 07:13:26;;;;;;;;;;;24.40;92.70;;;;;;5099170;28;19909;-64
2023/04/15 07:15:53;;;;;;;;;;;24.10;93.60;;;;;;5097153;28;19907;-67
2023/04/15 07:18:20;;;;;;;;;;;24.00;94.30;;;;;;5099124;28;20008;-68
2023/04/15 07:20:46;;;;;;;;;;;23.90;95.10;;;;;;5097632;28;20370;-66
2023/04/15 07:23:13;;;;;;;;;;;23.70;95.60;;;;;;5098638;28;19972;-62
2023/04/15 07:25:40;;;;;;;;;;;23.60;96.30;;;;;;5097522;28;20322;-61
2023/04/15 07:28:06;;;;;;;;;;;23.50;96.80;;;;;;5097297;28;20084;-63
2023/04/15 07:30:33;;;;;;;;;;;23.30;97.40;;;;;;5098600;28;20400;-65
2023/04/15 07:33:00;;;;;;;;;;;23.20;98.00;;;;;;5096842;28;20296;-62
2023/04/15 07:35:27;;;;;;;;;;;23.10;98.70;;;;;;5099035;28;19999;-67
2023/04/15 07:37:53;;;;;;;;;;;23.10;99.20;;;;;;5095592;28;19914;-65
2023/04/15 07:40:21;;;;;;;;;;;23.10;99.50;;;;;;5098941;28;19919;-64
2023/04/15 07:42:48;;;;;;;;;;;23.00;99.80;;;;;;5097592;28;19938;-65
2023/04/15 07:45:15;;;;;;;;;;;23.00;99.90;;;;;;5098847;28;20279;-68
2023/04/15 07:47:42;;;;;;;;;;;22.90;99.90;;;;;;5097142;28;20019;-68
2023/04/15 07:50:10;;;;;;;;;;;22.90;99.90;;;;;;5096964;28;20216;-68
2023/04/15 07:52:40;;;;;;;;;;;22.80;99.90;;;;;;5098092;28;19915;-65
2023/04/15 07:55:10;;;;;;;;;;;22.80;99.90;;;;;;5097097;28;20283;-65
2023/04/15 07:57:37;;;;;;;;;;;22.70;99.90;;;;;;5097786;28;19954;-65
2023/04/15 08:00:04;;;;;;;;;;;22.60;99.90;;;;;;5096774;28;19916;-67
2023/04/15 08:02:31;;;;;;;;;;;22.70;99.90;;;;;;5098313;28;19907;-68
2023/04/15 08:04:58;;;;;;;;;;;22.60;99.90;;;;;;5095659;28;20308;-70
2023/04/15 08:07:25;;;;;;;;;;;22.50;99.90;;;;;;5098530;28;19907;-67
2023/04/15 08:09:51;;;;;;;;;;;22.50;99.90;;;;;;5096575;28;20272;-68
2023/04/15 08:12:18;;;;;;;;;;;22.50;99.90;;;;;;5097259;28;20105;-69
2023/04/15 08:14:45;;;;;;;;;;;22.50;99.90;;;;;;5096494;28;20003;-68
2023/04/15 08:17:12;;;;;;;;;;;22.50;99.80;;;;;;5096756;28;19919;-66
2023/04/15 08:19:39;;;;;;;;;;;22.50;99.80;;;;;;5097949;28;19912;-68
2023/04/15 08:22:06;;;;;;;;;;;22.50;99.60;;;;;;5096057;28;19912;-64
2023/04/15 08:24:33;;;;;;;;;;;22.50;99.80;;;;;;5097777;28;19911;-63
2023/04/15 08:27:03;;;;;;;;;;;22.50;99.90;;;;;;5095469;28;20442;-63
2023/04/15 08:29:29;;;;;;;;;;;22.50;99.90;;;;;;5097710;28;20349;-64
2023/04/15 08:31:56;;;;;;;;;;;22.50;99.90;;;;;;5096286;28;20386;-64
2023/04/15 08:34:23;;;;;;;;;;;22.40;99.90;;;;;;5097281;28;19974;-65
2023/04/15 08:36:50;;;;;;;;;;;22.40;99.90;;;;;;5096399;28;19985;-62
2023/04/15 08:39:17;;;;;;;;;;;22.40;99.90;;;;;;5096135;28;20170;-62
2023/04/15 08:41:47;;;;;;;;;;;22.40;99.90;;;;;;5097477;28;19916;-62
2023/04/15 08:44:14;;;;;;;;;;;22.30;99.90;;;;;;5096837;28;19939;-64
2023/04/15 08:46:44;;;;;;;;;;;22.30;99.90;;;;;;5097223;28;19912;-64
2023/04/15 08:49:13;;;;;;;;;;;22.20;99.90;;;;;;5095823;28;19915;-68
2023/04/15 08:51:40;;;;;;;;;;;22.20;99.60;;;;;;5097661;28;19915;-62
2023/04/15 08:54:10;;;;;;;;;;;22.20;99.40;;;;;;5094608;28;19908;-63
2023/04/15 08:56:38;;;;;;;;;;;22.20;99.60;;;;;;5097681;28;20411;-63
2023/04/15 08:59:05;;;;;;;;;;;22.20;99.80;;;;;;5094972;28;20544;-65
2023/04/15 09:01:32;;;;;;;;;;;22.20;99.20;;;;;;5097737;28;19928;-63
2023/04/15 09:03:59;;;;;;;;;;;22.10;99.20;;;;;;5097143;28;19908;-66
2023/04/15 09:06:26;;;;;;;;;;;22.10;99.30;;;;;;5096717;28;19968;-69
2023/04/15 09:08:52;;;;;;;;;;;22.10;99.10;;;;;;5096106;28;19918;-63
2023/04/15 09:11:20;;;;;;;;;;;22.10;99.10;;;;;;5095986;28;19907;-67
2023/04/15 09:13:48;;;;;;;;;;;22.20;98.80;;;;;;5097425;28;20280;-65
2023/04/15 09:16:14;;;;;;;;;;;22.10;98.60;;;;;;5095537;28;19953;-62
2023/04/15 09:18:41;;;;;;;;;;;22.10;98.70;;;;;;5097509;28;20296;-63
2023/04/15 09:21:10;;;;;;;;;;;22.10;98.90;;;;;;5092765;28;19920;-65
2023/04/15 09:23:37;;;;;;;;;;;22.10;98.90;;;;;;5110142;27;19920;-69
2023/04/15 09:26:05;;;;;;;;;;;22.10;98.90;;;;;;5099580;27;20237;-67
2023/04/15 09:28:32;;;;;;;;;;;22.10;98.80;;;;;;5087730;28;19916;-71
2023/04/15 09:30:59;;;;;;;;;;;22.10;99.00;;;;;;5079503;28;19908;-70
2023/04/15 09:33:26;;;;;;;;;;;22.10;99.10;;;;;;5079103;28;20307;-62
2023/04/15 09:35:57;;;;;;;;;;;22.10;99.30;;;;;;5097846;28;19990;-64
2023/04/15 09:38:24;;;;;;;;;;;22.00;99.40;;;;;;5104702;27;20190;-63
2023/04/15 09:40:51;;;;;;;;;;;22.00;99.60;;;;;;5096009;27;19919;-63
2023/04/15 09:43:17;;;;;;;;;;;22.00;99.80;;;;;;5097326;28;20093;-63
2023/04/15 09:45:49;;;;;;;;;;;21.90;99.90;;;;;;5098970;28;19914;-64
2023/04/15 09:48:17;;;;;;;;;;;22.00;99.90;;;;;;5095444;28;19915;-63
2023/04/15 09:50:44;;;;;;;;;;;21.90;99.90;;;;;;5098757;28;19915;-64
2023/04/15 09:53:11;;;;;;;;;;;21.90;99.90;;;;;;5097451;28;20337;-64
2023/04/15 09:55:37;;;;;;;;;;;21.90;99.90;;;;;;5098625;28;20002;-63
2023/04/15 09:58:17;;;;;;;;;;;21.80;99.90;;;;;;5097662;28;19908;-64
2023/04/15 10:00:44;;;;;;;;;;;21.80;99.90;;;;;;5098885;28;19915;-63
2023/04/15 10:03:11;;;;;;;;;;;21.80;99.90;;;;;;5098312;28;19908;-63
2023/04/15 10:05:38;;;;;;;;;;;21.80;99.90;;;;;;5100281;28;19991;-71
2023/04/15 10:08:05;;;;;;;;;;;21.80;99.90;;;;;;5099336;28;20630;-65
2023/04/15 10:10:32;;;;;;;;;;;21.70;99.90;;;;;;5098956;28;19950;-67
2023/04/15 10:12:58;;;;;;;;;;;21.80;99.90;;;;;;5100292;28;19908;-70
2023/04/15 10:15:26;;;;;;;;;;;21.70;99.90;;;;;;5098404;28;20249;-63
2023/04/15 10:17:54;;;;;;;;;;;21.70;99.90;;;;;;5100522;28;20576;-67
2023/04/15 10:20:21;;;;;;;;;;;21.70;99.90;;;;;;5097391;28;20445;-61
2023/04/15 10:22:48;;;;;;;;;;;21.70;99.90;;;;;;5100070;28;19922;-63
2023/04/15 10:25:15;;;;;;;;;;;21.70;99.90;;;;;;5080314;28;19908;-61
2023/04/15 10:27:42;;;;;;;;;;;21.60;99.90;;;;;;5100270;28;19908;-63
2023/04/15 10:30:08;;;;;;;;;;;21.60;99.90;;;;;;5098440;28;20261;-63
2023/04/15 10:32:35;;;;;;;;;;;21.60;99.90;;;;;;5098627;28;19908;-64
2023/04/15 10:35:03;;;;;;;;;;;21.60;99.90;;;;;;5099425;28;19907;-62
2023/04/15 10:37:36;;;;;;;;;;;21.60;99.90;;;;;;5097981;28;19960;-63
2023/04/15 10:40:21;;;;;;;;;;;21.50;99.90;;;;;;5098907;28;20432;-63
2023/04/15 10:42:48;;;;;;;;;;;21.50;99.90;;;;;;5100436;28;19975;-64
2023/04/15 10:45:18;;;;;;;;;;;21.50;99.90;;;;;;5098984;28;19930;-64
2023/04/15 10:47:45;;;;;;;;;;;21.50;99.90;;;;;;5099873;28;19907;-68
2023/04/15 10:50:11;;;;;;;;;;;21.50;99.90;;;;;;5098186;28;20232;-68
2023/04/15 10:52:41;;;;;;;;;;;21.50;99.90;;;;;;5097804;28;20067;-67
2023/04/15 10:55:15;;;;;;;;;;;21.40;99.90;;;;;;5098859;28;19995;-62
2023/04/15 10:57:42;;;;;;;;;;;21.50;99.90;;;;;;5098136;28;19915;-62
2023/04/15 11:00:10;;;;;;;;;;;21.50;99.90;;;;;;5098633;28;20368;-61
2023/04/15 11:02:48;;;;;;;;;;;21.40;99.90;;;;;;5097921;28;19935;-64
2023/04/15 11:05:15;;;;;;;;;;;21.40;99.90;;;;;;5097994;28;19953;-61
2023/04/15 11:07:51;;;;;;;;;;;21.50;99.90;;;;;;5097671;28;20067;-65
2023/04/15 11:10:19;;;;;;;;;;;21.40;99.90;;;;;;5098872;28;19915;-68
2023/04/15 11:13:06;;;;;;;;;;;21.40;99.90;;;;;;5098980;28;19907;-67
2023/04/15 11:15:32;;;;;;;;;;;21.40;99.90;;;;;;5082750;28;19907;-68
2023/04/15 11:18:19;;;;;;;;;;;21.40;99.90;;;;;;5080674;28;20353;-66
2023/04/15 11:20:47;;;;;;;;;;;21.40;99.90;;;;;;5097960;28;20432;-66
2023/04/15 11:23:14;;;;;;;;;;;21.40;99.90;;;;;;5097944;28;19973;-68
2023/04/15 11:25:45;;;;;;;;;;;21.30;99.90;;;;;;5096789;28;20273;-67
2023/04/15 11:28:12;;;;;;;;;;;21.30;99.90;;;;;;5098092;28;20580;-62
2023/04/15 11:30:39;;;;;;;;;;;21.30;99.90;;;;;;5097567;28;20345;-67
2023/04/15 11:33:10;;;;;;;;;;;21.30;99.90;;;;;;5099570;28;19914;-69
2023/04/15 11:35:39;;;;;;;;;;;21.30;99.90;;;;;;5097213;28;19953;-66
2023/04/15 11:38:13;;;;;;;;;;;21.30;99.90;;;;;;5099239;28;20113;-62
2023/04/15 11:40:40;;;;;;;;;;;21.30;99.90;;;;;;5097051;28;20479;-62
2023/04/15 11:43:20;;;;;;;;;;;21.40;99.90;;;;;;5098871;28;19990;-63
2023/04/15 11:46:00;;;;;;;;;;;21.40;99.90;;;;;;5096282;28;20095;-68
2023/04/15 11:48:27;;;;;;;;;;;21.30;99.90;;;;;;5097052;28;20356;-68
2023/04/15 11:50:58;;;;;;;;;;;21.30;99.90;;;;;;5098534;28;20131;-68
2023/04/15 11:53:36;;;;;;;;;;;21.40;99.90;;;;;;5097596;28;20360;-69
2023/04/15 11:56:02;;;;;;;;;;;21.30;99.90;;;;;;5098613;28;19913;-66
2023/04/15 11:58:29;;;;;;;;;;;21.30;99.90;;;;;;5096734;28;19986;-65
2023/04/15 12:00:59;;;;;;;;;;;21.40;99.90;;;;;;5097654;28;19919;-68
2023/04/15 12:03:41;;;;;;;;;;;21.30;99.90;;;;;;5097127;28;20276;-61
2023/04/15 12:06:12;;;;;;;;;;;21.40;99.90;;;;;;5098650;28;19908;-68
2023/04/15 12:08:48;;;;;;;;;;;21.30;99.90;;;;;;5095996;28;19926;-68
2023/04/15 12:11:18;;;;;;;;;;;21.30;99.90;;;;;;5098429;28;19907;-68
2023/04/15 12:13:49;;;;;;;;;;;21.30;99.90;;;;;;5096807;28;19963;-69
2023/04/15 12:16:22;;;;;;;;;;;21.30;99.90;;;;;;5098067;28;19907;-65
2023/04/15 12:18:52;;;;;;;;;;;21.20;99.90;;;;;;5097040;28;19955;-68
2023/04/15 12:21:19;;;;;;;;;;;21.20;99.90;;;;;;5097539;28;20257;-66
2023/04/15 12:23:50;;;;;;;;;;;21.20;99.90;;;;;;5095827;28;19975;-68
2023/04/15 12:26:18;;;;;;;;;;;21.20;99.90;;;;;;5097528;28;20249;-65
2023/04/15 12:28:45;;;;;;;;;;;21.20;99.90;;;;;;5095854;28;20364;-67
2023/04/15 12:31:13;;;;;;;;;;;21.20;99.90;;;;;;5097894;28;19911;-67
2023/04/15 12:33:40;;;;;;;;;;;21.30;99.90;;;;;;5095461;28;20106;-64
2023/04/15 12:36:07;;;;;;;;;;;21.20;99.90;;;;;;5098252;28;19908;-65
2023/04/15 12:38:33;;;;;;;;;;;21.20;99.90;;;;;;5096139;28;19904;-67
2023/04/15 12:41:00;;;;;;;;;;;21.30;99.90;;;;;;5097381;28;20443;-68
2023/04/15 12:43:27;;;;;;;;;;;21.20;99.90;;;;;;5096518;28;20399;-70
2023/04/15 12:45:53;;;;;;;;;;;21.20;99.90;;;;;;5096157;28;19962;-67
2023/04/15 12:48:20;;;;;;;;;;;21.20;99.90;;;;;;5097498;28;19908;-68
2023/04/15 12:50:47;;;;;;;;;;;21.20;99.90;;;;;;5095644;28;19908;-68
2023/04/15 12:53:13;;;;;;;;;;;21.20;99.90;;;;;;5097808;28;19908;-68
2023/04/15 12:55:40;;;;;;;;;;;21.30;99.90;;;;;;5096709;28;19935;-67
2023/04/15 12:58:07;;;;;;;;;;;21.30;99.90;;;;;;5100811;28;20332;-66
2023/04/15 13:00:34;;;;;;;;;;;21.20;99.90;;;;;;5100532;28;19916;-69
2023/04/15 13:03:01;;;;;;;;;;;21.30;99.90;;;;;;5100617;28;20103;-68
2023/04/15 13:05:28;;;;;;;;;;;21.30;99.90;;;;;;5100880;28;19908;-61
2023/04/15 13:07:55;;;;;;;;;;;21.30;99.90;;;;;;5100309;28;20345;-65
2023/04/15 13:10:22;;;;;;;;;;;21.20;99.90;;;;;;5101657;28;20010;-63
2023/04/15 13:12:52;;;;;;;;;;;21.30;99.90;;;;;;5099234;28;19962;-64
2023/04/15 13:15:22;;;;;;;;;;;21.20;99.90;;;;;;5101452;28;19912;-67
2023/04/15 13:17:49;;;;;;;;;;;21.30;99.90;;;;;;5098535;28;20570;-64
2023/04/15 13:20:16;;;;;;;;;;;21.20;99.90;;;;;;5101394;28;19912;-65
2023/04/15 13:22:43;;;;;;;;;;;21.20;99.90;;;;;;5099570;28;19965;-62
2023/04/15 13:25:09;;;;;;;;;;;21.20;99.90;;;;;;5101278;28;20668;-68
2023/04/15 13:27:36;;;;;;;;;;;21.10;99.90;;;;;;5099782;28;20314;-61
2023/04/15 13:30:04;;;;;;;;;;;21.10;99.90;;;;;;5100549;28;20106;-64
2023/04/15 13:32:30;;;;;;;;;;;21.10;99.90;;;;;;5101104;28;19919;-68
2023/04/15 13:34:58;;;;;;;;;;;21.10;99.90;;;;;;5099341;28;19914;-64
2023/04/15 13:37:28;;;;;;;;;;;21.10;99.90;;;;;;5101174;28;19911;-64
2023/04/15 13:39:55;;;;;;;;;;;21.10;99.90;;;;;;5098948;28;19908;-62
2023/04/15 13:42:22;;;;;;;;;;;21.10;99.90;;;;;;5100936;28;19919;-66
2023/04/15 13:44:52;;;;;;;;;;;21.10;99.90;;;;;;5099097;28;19928;-63
2023/04/15 13:47:19;;;;;;;;;;;21.00;99.90;;;;;;5101591;28;19908;-67
2023/04/15 13:49:45;;;;;;;;;;;21.00;99.90;;;;;;5099793;28;19918;-65
2023/04/15 13:52:12;;;;;;;;;;;21.00;99.90;;;;;;5100304;28;20283;-69
2023/04/15 13:54:39;;;;;;;;;;;20.90;99.90;;;;;;5099192;28;20154;-69
2023/04/15 13:57:06;;;;;;;;;;;20.90;99.90;;;;;;5099645;28;20555;-62
2023/04/15 13:59:36;;;;;;;;;;;21.00;99.90;;;;;;5100742;28;19908;-64
2023/04/15 14:02:02;;;;;;;;;;;21.00;99.90;;;;;;5099245;28;19916;-68
2023/04/15 14:04:30;;;;;;;;;;;20.90;99.90;;;;;;5101108;28;20384;-67
2023/04/15 14:06:57;;;;;;;;;;;20.90;99.90;;;;;;5098052;28;20356;-67
2023/04/15 14:09:24;;;;;;;;;;;20.90;99.90;;;;;;5099642;28;19915;-66
2023/04/15 14:11:50;;;;;;;;;;;20.90;99.90;;;;;;5098588;28;19919;-63
2023/04/15 14:14:17;;;;;;;;;;;20.90;99.90;;;;;;5100851;28;19951;-62
2023/04/15 14:16:44;;;;;;;;;;;20.80;99.90;;;;;;5098888;28;19908;-68
2023/04/15 14:19:10;;;;;;;;;;;20.80;99.90;;;;;;5098811;28;20113;-63